Decoded Metar for KPIB (PINE BELT RGNL in MS, USA) (IATA:PIB) | Meteo·Mobile Aviation Weather
aviador You're here:

KPIB Decoded Metar

PINE BELT RGNL in MS, USA
Report Time2018-09-22 17:56:00
UTC Time2018-09-22 18:48:31
Flight Rules vfr VFR
Wind180° at 04 kt
W.Decomp.*RWY 18: 4.0 kt HW 0.1 kt RCW
W.Rank180° ranks 2
Current wind is below 180° avg. (6.5)
Visibility9999 m
Phenomena:N/A
Clouds:Few 036 Hf
Expected CloudBase > 2,800 ft AGL from Temp-Dew spread
CeilingNone
Temp30°C (ISA +16)
Dew Point23°C (66% RH)
Heat Index34.1°C
QNH1017 hPa
Density Alt2,323 ft
Elevation299 ft
Report Wrong Elevation
Raw Report
KPIB 221756Z AUTO 18004KT 10SM FEW036 30/23 A3002 RMK AO2 SLP164
6//// T03000233 10311 20217 58011 PNO $=

Extra information for KPIB:More info

Metar Taf Metar & Taf Last 4 Metars F.Rules Stats Wind Profile Meteogram Temp Stats Airport Information Weather charts Add Link Nearby VenuesMetar ALERT Operation Metar Decoded Social comments

AIRNAV info for KPIB